This is the latest recevied weather packets stored in our database for station/object KB4KY. If no packets are shown the sender has not sent any weather packets the latest 10 day(s).
| Time | Temp. | Humidity | Pressure | Rain* | Wind** | Luminosity | Snow |
|---|---|---|---|---|---|---|---|
| 1778090931 | 17.78° C | 62% | 1011.7 hPa | 0 mm | - | - | - |
| 1778090631 | 17.78° C | 63% | 1011.8 hPa | 0 mm | - | - | - |
| 1778090333 | 17.78° C | 63% | 1012.1 hPa | 0 mm | - | - | - |
| 1778089733 | 17.22° C | 64% | 1012.1 hPa | 0 mm | - | - | - |
| 1778089430 | 17.22° C | 63% | 1012 hPa | 0 mm | - | - | - |
| 1778089133 | 16.67° C | 66% | 1011.9 hPa | 0 mm | - | - | - |
| 1778088829 | 16.67° C | 66% | 1012.1 hPa | 0 mm | - | - | - |
| 1778088529 | 17.22° C | 65% | 1012.1 hPa | 0 mm | - | - | - |
| 1778088264 | 16.67° C | 68% | 1012 hPa | 0 mm | - | - | - |
| 1778088229 | 16.67° C | 68% | 1012 hPa | 0 mm | - | - | - |
| 1778087970 | 16.11° C | 67% | 1012.1 hPa | 0 mm | - | - | - |
| 1778087928 | 16.11° C | 67% | 1012.1 hPa | 0 mm | - | - | - |
| 1778087629 | 16.11° C | 66% | 1012.2 hPa | 0 mm | - | - | - |
| 1778087336 | 16.11° C | 71% | 1012.3 hPa | 0 mm | - | - | - |
| 1778087027 | 16.11° C | 70% | 1012.4 hPa | 0 mm | - | - | - |
| 1778086727 | 15.56° C | 73% | 1012.5 hPa | 0 mm | - | - | - |
| 1778086429 | 16.11° C | 67% | 1012.6 hPa | 0 mm | - | - | - |
| 1778086127 | 16.11° C | 68% | 1012.5 hPa | 0 mm | - | - | - |
| 1778085914 | 15.56° C | 70% | 1013 hPa | 0 mm | - | - | - |
| 1778085826 | 15.56° C | 69% | 1012.5 hPa | 0 mm | - | - | - |
| 1778085526 | 15.56° C | 68% | 1012.6 hPa | 0 mm | - | - | - |
| 1778085226 | 15.56° C | 70% | 1013 hPa | 0 mm | - | - | - |
| 1778084925 | 15.56° C | 68% | 1012.9 hPa | 0 mm | - | - | - |
| 1778084625 | 16.11° C | 69% | 1012.8 hPa | 0 mm | - | - | - |
| 1778084341 | 16.11° C | 68% | 1012.8 hPa | 0 mm | - | - | - |
* Rain latest hour (hover to see other rain measurements)
** Current wind speed in m/s (hover to see current wind gust speed)